sensor_id;sensor_type;location;lat;lon;timestamp;P1;durP1;ratioP1;P2;durP2;ratioP2
80159;SDS011;69486;59.082;37.928;2023-05-07T00:01:42;10.63;;;3.00;;
80159;SDS011;69486;59.082;37.928;2023-05-07T00:04:08;14.90;;;3.38;;
80159;SDS011;69486;59.082;37.928;2023-05-07T00:06:33;12.32;;;3.47;;
80159;SDS011;69486;59.082;37.928;2023-05-07T00:08:59;13.68;;;3.75;;
80159;SDS011;69486;59.082;37.928;2023-05-07T00:11:26;16.65;;;3.30;;
80159;SDS011;69486;59.082;37.928;2023-05-07T00:13:52;8.70;;;2.88;;
80159;SDS011;69486;59.082;37.928;2023-05-07T00:16:18;9.73;;;2.75;;
80159;SDS011;69486;59.082;37.928;2023-05-07T00:18:44;7.95;;;2.72;;
80159;SDS011;69486;59.082;37.928;2023-05-07T00:21:10;8.18;;;2.45;;
80159;SDS011;69486;59.082;37.928;2023-05-07T00:23:36;10.13;;;2.80;;
80159;SDS011;69486;59.082;37.928;2023-05-07T00:26:02;11.23;;;3.45;;
80159;SDS011;69486;59.082;37.928;2023-05-07T00:28:29;11.05;;;3.90;;
80159;SDS011;69486;59.082;37.928;2023-05-07T00:30:55;12.75;;;4.05;;
80159;SDS011;69486;59.082;37.928;2023-05-07T00:33:21;15.40;;;4.10;;
80159;SDS011;69486;59.082;37.928;2023-05-07T00:35:47;13.02;;;3.78;;
80159;SDS011;69486;59.082;37.928;2023-05-07T00:38:13;9.98;;;3.08;;
80159;SDS011;69486;59.082;37.928;2023-05-07T00:40:38;12.52;;;4.30;;
80159;SDS011;69486;59.082;37.928;2023-05-07T00:43:04;12.18;;;4.65;;
80159;SDS011;69486;59.082;37.928;2023-05-07T00:45:30;13.75;;;4.10;;
80159;SDS011;69486;59.082;37.928;2023-05-07T00:47:57;12.80;;;4.60;;
80159;SDS011;69486;59.082;37.928;2023-05-07T00:50:23;14.30;;;3.88;;
80159;SDS011;69486;59.082;37.928;2023-05-07T00:52:48;8.65;;;3.97;;
80159;SDS011;69486;59.082;37.928;2023-05-07T00:55:14;8.63;;;3.50;;
80159;SDS011;69486;59.082;37.928;2023-05-07T00:57:40;8.00;;;2.80;;
80159;SDS011;69486;59.082;37.928;2023-05-07T01:00:07;11.82;;;2.60;;
80159;SDS011;69486;59.082;37.928;2023-05-07T01:02:37;12.27;;;3.53;;
80159;SDS011;69486;59.082;37.928;2023-05-07T01:05:03;8.23;;;2.70;;
80159;SDS011;69486;59.082;37.928;2023-05-07T01:07:31;9.68;;;3.33;;
80159;SDS011;69486;59.082;37.928;2023-05-07T01:09:57;12.13;;;3.50;;
80159;SDS011;69486;59.082;37.928;2023-05-07T01:12:23;11.43;;;4.15;;
80159;SDS011;69486;59.082;37.928;2023-05-07T01:14:49;15.73;;;6.20;;
80159;SDS011;69486;59.082;37.928;2023-05-07T01:17:16;12.15;;;6.93;;
80159;SDS011;69486;59.082;37.928;2023-05-07T01:19:43;15.25;;;6.22;;
80159;SDS011;69486;59.082;37.928;2023-05-07T01:22:10;11.35;;;5.70;;
80159;SDS011;69486;59.082;37.928;2023-05-07T01:24:40;13.57;;;5.78;;
80159;SDS011;69486;59.082;37.928;2023-05-07T01:27:06;10.70;;;4.47;;
80159;SDS011;69486;59.082;37.928;2023-05-07T01:29:31;12.80;;;5.78;;
80159;SDS011;69486;59.082;37.928;2023-05-07T01:31:57;8.43;;;4.10;;
80159;SDS011;69486;59.082;37.928;2023-05-07T01:34:24;10.60;;;5.03;;
80159;SDS011;69486;59.082;37.928;2023-05-07T01:36:51;10.23;;;4.70;;
80159;SDS011;69486;59.082;37.928;2023-05-07T01:39:17;13.77;;;4.68;;
80159;SDS011;69486;59.082;37.928;2023-05-07T01:41:43;10.90;;;3.97;;
80159;SDS011;69486;59.082;37.928;2023-05-07T01:44:10;9.13;;;5.65;;
80159;SDS011;69486;59.082;37.928;2023-05-07T01:46:36;8.88;;;3.88;;
80159;SDS011;69486;59.082;37.928;2023-05-07T01:49:02;7.68;;;2.88;;
80159;SDS011;69486;59.082;37.928;2023-05-07T01:51:27;7.35;;;2.22;;
80159;SDS011;69486;59.082;37.928;2023-05-07T01:53:53;2.63;;;1.83;;
80159;SDS011;69486;59.082;37.928;2023-05-07T01:56:19;7.18;;;2.15;;
80159;SDS011;69486;59.082;37.928;2023-05-07T01:58:45;3.90;;;1.92;;
80159;SDS011;69486;59.082;37.928;2023-05-07T02:01:12;5.55;;;2.90;;
80159;SDS011;69486;59.082;37.928;2023-05-07T02:03:38;6.25;;;2.42;;
80159;SDS011;69486;59.082;37.928;2023-05-07T02:06:04;7.63;;;3.55;;
80159;SDS011;69486;59.082;37.928;2023-05-07T02:08:30;7.30;;;3.15;;
80159;SDS011;69486;59.082;37.928;2023-05-07T02:10:56;9.32;;;3.00;;
80159;SDS011;69486;59.082;37.928;2023-05-07T02:13:22;10.18;;;2.92;;
80159;SDS011;69486;59.082;37.928;2023-05-07T02:15:49;15.43;;;4.85;;
80159;SDS011;69486;59.082;37.928;2023-05-07T02:18:16;13.10;;;5.30;;
80159;SDS011;69486;59.082;37.928;2023-05-07T02:20:42;23.92;;;7.43;;
80159;SDS011;69486;59.082;37.928;2023-05-07T02:23:07;33.67;;;9.82;;
80159;SDS011;69486;59.082;37.928;2023-05-07T02:25:33;27.90;;;8.35;;
80159;SDS011;69486;59.082;37.928;2023-05-07T02:27:59;32.13;;;9.80;;
80159;SDS011;69486;59.082;37.928;2023-05-07T02:30:25;28.98;;;9.30;;
80159;SDS011;69486;59.082;37.928;2023-05-07T02:32:51;30.38;;;10.30;;
80159;SDS011;69486;59.082;37.928;2023-05-07T02:35:16;29.60;;;11.43;;
80159;SDS011;69486;59.082;37.928;2023-05-07T02:37:42;40.08;;;13.00;;
80159;SDS011;69486;59.082;37.928;2023-05-07T02:40:08;33.53;;;12.38;;
80159;SDS011;69486;59.082;37.928;2023-05-07T02:42:34;35.08;;;11.85;;
80159;SDS011;69486;59.082;37.928;2023-05-07T02:45:00;34.35;;;11.82;;
80159;SDS011;69486;59.082;37.928;2023-05-07T02:47:25;24.63;;;9.30;;
80159;SDS011;69486;59.082;37.928;2023-05-07T02:49:54;20.80;;;7.60;;
80159;SDS011;69486;59.082;37.928;2023-05-07T02:52:20;21.00;;;8.63;;
80159;SDS011;69486;59.082;37.928;2023-05-07T02:54:46;25.65;;;10.35;;
80159;SDS011;69486;59.082;37.928;2023-05-07T02:57:11;29.63;;;9.40;;
80159;SDS011;69486;59.082;37.928;2023-05-07T02:59:37;29.45;;;9.65;;
80159;SDS011;69486;59.082;37.928;2023-05-07T03:02:03;19.38;;;6.95;;
80159;SDS011;69486;59.082;37.928;2023-05-07T03:04:28;10.23;;;4.22;;
80159;SDS011;69486;59.082;37.928;2023-05-07T03:06:54;5.90;;;2.30;;
80159;SDS011;69486;59.082;37.928;2023-05-07T03:09:20;3.65;;;1.80;;
80159;SDS011;69486;59.082;37.928;2023-05-07T03:11:46;8.18;;;2.53;;
80159;SDS011;69486;59.082;37.928;2023-05-07T03:14:13;5.60;;;1.75;;
80159;SDS011;69486;59.082;37.928;2023-05-07T03:16:39;11.13;;;2.30;;
80159;SDS011;69486;59.082;37.928;2023-05-07T03:19:05;8.98;;;2.85;;
80159;SDS011;69486;59.082;37.928;2023-05-07T03:21:30;10.32;;;2.60;;
80159;SDS011;69486;59.082;37.928;2023-05-07T03:23:59;11.15;;;3.55;;
80159;SDS011;69486;59.082;37.928;2023-05-07T03:26:24;6.07;;;2.70;;
80159;SDS011;69486;59.082;37.928;2023-05-07T03:28:50;8.70;;;3.45;;
80159;SDS011;69486;59.082;37.928;2023-05-07T03:31:17;5.03;;;2.08;;
80159;SDS011;69486;59.082;37.928;2023-05-07T03:33:53;3.75;;;1.88;;
80159;SDS011;69486;59.082;37.928;2023-05-07T03:36:18;3.47;;;1.60;;
80159;SDS011;69486;59.082;37.928;2023-05-07T03:38:44;2.30;;;1.40;;
80159;SDS011;69486;59.082;37.928;2023-05-07T03:41:10;2.63;;;1.40;;
80159;SDS011;69486;59.082;37.928;2023-05-07T03:43:35;3.47;;;1.50;;
80159;SDS011;69486;59.082;37.928;2023-05-07T03:46:01;1.25;;;1.15;;
80159;SDS011;69486;59.082;37.928;2023-05-07T03:48:27;1.38;;;1.25;;
80159;SDS011;69486;59.082;37.928;2023-05-07T03:50:52;1.40;;;1.30;;
80159;SDS011;69486;59.082;37.928;2023-05-07T03:53:18;1.75;;;1.33;;
80159;SDS011;69486;59.082;37.928;2023-05-07T03:55:44;1.88;;;1.30;;
80159;SDS011;69486;59.082;37.928;2023-05-07T03:58:09;1.50;;;1.40;;
80159;SDS011;69486;59.082;37.928;2023-05-07T04:00:35;1.10;;;1.00;;
80159;SDS011;69486;59.082;37.928;2023-05-07T04:03:03;1.92;;;1.15;;
80159;SDS011;69486;59.082;37.928;2023-05-07T04:05:30;2.53;;;1.40;;
80159;SDS011;69486;59.082;37.928;2023-05-07T04:07:57;1.90;;;1.38;;
80159;SDS011;69486;59.082;37.928;2023-05-07T04:10:23;1.42;;;1.33;;
80159;SDS011;69486;59.082;37.928;2023-05-07T04:12:48;5.05;;;1.92;;
80159;SDS011;69486;59.082;37.928;2023-05-07T04:15:14;1.48;;;1.38;;
80159;SDS011;69486;59.082;37.928;2023-05-07T04:17:40;1.65;;;1.50;;
80159;SDS011;69486;59.082;37.928;2023-05-07T04:20:08;1.70;;;1.60;;
80159;SDS011;69486;59.082;37.928;2023-05-07T04:22:34;2.47;;;1.60;;
80159;SDS011;69486;59.082;37.928;2023-05-07T04:25:00;7.35;;;2.55;;
80159;SDS011;69486;59.082;37.928;2023-05-07T04:27:25;2.97;;;2.13;;
80159;SDS011;69486;59.082;37.928;2023-05-07T04:29:51;3.80;;;1.90;;
80159;SDS011;69486;59.082;37.928;2023-05-07T04:32:21;4.68;;;1.52;;
80159;SDS011;69486;59.082;37.928;2023-05-07T04:34:46;3.28;;;2.08;;
80159;SDS011;69486;59.082;37.928;2023-05-07T04:37:12;4.65;;;1.83;;
80159;SDS011;69486;59.082;37.928;2023-05-07T04:39:37;2.25;;;1.80;;
80159;SDS011;69486;59.082;37.928;2023-05-07T04:42:03;3.30;;;2.03;;
80159;SDS011;69486;59.082;37.928;2023-05-07T04:44:29;9.75;;;2.50;;
80159;SDS011;69486;59.082;37.928;2023-05-07T04:46:56;6.88;;;2.50;;
80159;SDS011;69486;59.082;37.928;2023-05-07T04:49:22;13.90;;;2.92;;
80159;SDS011;69486;59.082;37.928;2023-05-07T04:51:47;6.88;;;2.17;;
80159;SDS011;69486;59.082;37.928;2023-05-07T04:54:13;12.68;;;2.55;;
80159;SDS011;69486;59.082;37.928;2023-05-07T04:56:38;7.82;;;2.17;;
80159;SDS011;69486;59.082;37.928;2023-05-07T04:59:04;4.15;;;2.28;;
80159;SDS011;69486;59.082;37.928;2023-05-07T05:01:31;6.07;;;2.40;;
80159;SDS011;69486;59.082;37.928;2023-05-07T05:03:56;3.33;;;2.10;;
80159;SDS011;69486;59.082;37.928;2023-05-07T05:06:22;6.55;;;2.42;;
80159;SDS011;69486;59.082;37.928;2023-05-07T05:08:47;5.50;;;2.78;;
80159;SDS011;69486;59.082;37.928;2023-05-07T05:11:13;9.18;;;2.75;;
80159;SDS011;69486;59.082;37.928;2023-05-07T05:13:38;6.72;;;2.22;;
80159;SDS011;69486;59.082;37.928;2023-05-07T05:16:04;11.32;;;2.70;;
80159;SDS011;69486;59.082;37.928;2023-05-07T05:18:30;8.65;;;2.92;;
80159;SDS011;69486;59.082;37.928;2023-05-07T05:20:56;8.90;;;2.30;;
80159;SDS011;69486;59.082;37.928;2023-05-07T05:23:22;14.32;;;2.88;;
80159;SDS011;69486;59.082;37.928;2023-05-07T05:25:47;10.95;;;2.63;;
80159;SDS011;69486;59.082;37.928;2023-05-07T05:28:13;7.60;;;2.33;;
80159;SDS011;69486;59.082;37.928;2023-05-07T05:30:38;11.05;;;3.15;;
80159;SDS011;69486;59.082;37.928;2023-05-07T05:33:04;4.05;;;2.08;;
80159;SDS011;69486;59.082;37.928;2023-05-07T05:35:30;7.57;;;2.80;;
80159;SDS011;69486;59.082;37.928;2023-05-07T05:37:56;6.22;;;2.15;;
80159;SDS011;69486;59.082;37.928;2023-05-07T05:40:21;9.77;;;2.60;;
80159;SDS011;69486;59.082;37.928;2023-05-07T05:42:47;6.00;;;2.10;;
80159;SDS011;69486;59.082;37.928;2023-05-07T05:45:12;8.88;;;1.95;;
80159;SDS011;69486;59.082;37.928;2023-05-07T05:47:38;4.43;;;1.75;;
80159;SDS011;69486;59.082;37.928;2023-05-07T05:50:05;4.95;;;1.83;;
80159;SDS011;69486;59.082;37.928;2023-05-07T05:52:31;12.48;;;3.00;;
80159;SDS011;69486;59.082;37.928;2023-05-07T05:54:57;6.78;;;2.90;;
80159;SDS011;69486;59.082;37.928;2023-05-07T05:57:22;6.85;;;3.13;;
80159;SDS011;69486;59.082;37.928;2023-05-07T05:59:48;6.22;;;2.72;;
80159;SDS011;69486;59.082;37.928;2023-05-07T06:02:13;9.52;;;3.25;;
80159;SDS011;69486;59.082;37.928;2023-05-07T06:04:39;7.82;;;3.03;;
80159;SDS011;69486;59.082;37.928;2023-05-07T06:07:05;6.28;;;3.03;;
80159;SDS011;69486;59.082;37.928;2023-05-07T06:09:30;14.95;;;3.58;;
80159;SDS011;69486;59.082;37.928;2023-05-07T06:11:56;7.55;;;2.90;;
80159;SDS011;69486;59.082;37.928;2023-05-07T06:14:22;4.38;;;2.17;;
80159;SDS011;69486;59.082;37.928;2023-05-07T06:16:48;7.88;;;1.92;;
80159;SDS011;69486;59.082;37.928;2023-05-07T06:19:14;5.07;;;1.67;;
80159;SDS011;69486;59.082;37.928;2023-05-07T06:21:39;7.18;;;2.50;;
80159;SDS011;69486;59.082;37.928;2023-05-07T06:24:05;9.20;;;2.45;;
80159;SDS011;69486;59.082;37.928;2023-05-07T06:26:31;7.93;;;2.40;;
80159;SDS011;69486;59.082;37.928;2023-05-07T06:28:56;4.88;;;1.70;;
80159;SDS011;69486;59.082;37.928;2023-05-07T06:31:22;7.85;;;2.08;;
80159;SDS011;69486;59.082;37.928;2023-05-07T06:33:48;7.97;;;2.10;;
80159;SDS011;69486;59.082;37.928;2023-05-07T06:36:14;5.25;;;2.83;;
80159;SDS011;69486;59.082;37.928;2023-05-07T06:38:40;5.93;;;2.30;;
80159;SDS011;69486;59.082;37.928;2023-05-07T06:41:05;8.90;;;2.95;;
80159;SDS011;69486;59.082;37.928;2023-05-07T06:43:31;4.25;;;2.00;;
80159;SDS011;69486;59.082;37.928;2023-05-07T06:45:56;4.40;;;1.85;;
80159;SDS011;69486;59.082;37.928;2023-05-07T06:48:22;5.32;;;1.50;;
80159;SDS011;69486;59.082;37.928;2023-05-07T06:50:47;4.18;;;1.48;;
80159;SDS011;69486;59.082;37.928;2023-05-07T06:53:13;8.40;;;3.55;;
80159;SDS011;69486;59.082;37.928;2023-05-07T06:55:39;5.10;;;2.38;;
80159;SDS011;69486;59.082;37.928;2023-05-07T06:58:04;4.10;;;1.60;;
80159;SDS011;69486;59.082;37.928;2023-05-07T07:00:31;3.75;;;1.52;;
80159;SDS011;69486;59.082;37.928;2023-05-07T07:02:56;4.40;;;1.92;;
80159;SDS011;69486;59.082;37.928;2023-05-07T07:05:22;6.03;;;2.58;;
80159;SDS011;69486;59.082;37.928;2023-05-07T07:07:48;10.48;;;3.08;;
80159;SDS011;69486;59.082;37.928;2023-05-07T07:10:18;5.65;;;2.10;;
80159;SDS011;69486;59.082;37.928;2023-05-07T07:12:44;4.95;;;1.75;;
80159;SDS011;69486;59.082;37.928;2023-05-07T07:15:10;4.88;;;1.50;;
80159;SDS011;69486;59.082;37.928;2023-05-07T07:17:36;5.55;;;2.20;;
80159;SDS011;69486;59.082;37.928;2023-05-07T07:20:02;1.83;;;1.00;;
80159;SDS011;69486;59.082;37.928;2023-05-07T07:22:28;4.53;;;2.35;;
80159;SDS011;69486;59.082;37.928;2023-05-07T07:24:54;4.18;;;1.67;;
80159;SDS011;69486;59.082;37.928;2023-05-07T07:27:20;3.20;;;2.17;;
80159;SDS011;69486;59.082;37.928;2023-05-07T07:29:45;11.23;;;2.05;;
80159;SDS011;69486;59.082;37.928;2023-05-07T07:32:11;6.57;;;2.53;;
80159;SDS011;69486;59.082;37.928;2023-05-07T07:34:36;9.15;;;3.85;;
80159;SDS011;69486;59.082;37.928;2023-05-07T07:37:02;10.23;;;3.40;;
80159;SDS011;69486;59.082;37.928;2023-05-07T07:39:31;3.65;;;1.45;;
80159;SDS011;69486;59.082;37.928;2023-05-07T07:41:56;3.65;;;1.33;;
80159;SDS011;69486;59.082;37.928;2023-05-07T07:44:22;3.35;;;1.20;;
80159;SDS011;69486;59.082;37.928;2023-05-07T07:46:47;2.80;;;1.65;;
80159;SDS011;69486;59.082;37.928;2023-05-07T07:49:13;1.98;;;1.20;;
80159;SDS011;69486;59.082;37.928;2023-05-07T07:51:39;1.00;;;0.85;;
80159;SDS011;69486;59.082;37.928;2023-05-07T07:54:05;2.67;;;0.73;;
80159;SDS011;69486;59.082;37.928;2023-05-07T07:56:31;0.93;;;0.90;;
80159;SDS011;69486;59.082;37.928;2023-05-07T07:58:58;1.77;;;1.00;;
80159;SDS011;69486;59.082;37.928;2023-05-07T08:01:23;2.03;;;0.85;;
80159;SDS011;69486;59.082;37.928;2023-05-07T08:03:49;2.05;;;1.15;;
80159;SDS011;69486;59.082;37.928;2023-05-07T08:06:15;1.58;;;0.90;;
80159;SDS011;69486;59.082;37.928;2023-05-07T08:08:41;4.07;;;1.73;;
80159;SDS011;69486;59.082;37.928;2023-05-07T08:11:06;2.10;;;1.50;;
80159;SDS011;69486;59.082;37.928;2023-05-07T08:13:32;4.10;;;1.38;;
80159;SDS011;69486;59.082;37.928;2023-05-07T08:15:58;3.45;;;1.33;;
80159;SDS011;69486;59.082;37.928;2023-05-07T08:18:24;1.55;;;0.60;;
80159;SDS011;69486;59.082;37.928;2023-05-07T08:20:50;2.15;;;1.05;;
80159;SDS011;69486;59.082;37.928;2023-05-07T08:23:16;2.55;;;1.02;;
80159;SDS011;69486;59.082;37.928;2023-05-07T08:25:42;2.28;;;1.15;;
80159;SDS011;69486;59.082;37.928;2023-05-07T08:28:11;1.35;;;0.95;;
80159;SDS011;69486;59.082;37.928;2023-05-07T08:30:36;6.80;;;1.20;;
80159;SDS011;69486;59.082;37.928;2023-05-07T08:33:02;1.67;;;1.00;;
80159;SDS011;69486;59.082;37.928;2023-05-07T08:35:27;6.80;;;1.58;;
80159;SDS011;69486;59.082;37.928;2023-05-07T08:37:53;6.68;;;1.40;;
80159;SDS011;69486;59.082;37.928;2023-05-07T08:40:20;8.07;;;2.97;;
80159;SDS011;69486;59.082;37.928;2023-05-07T08:42:48;6.07;;;2.63;;
80159;SDS011;69486;59.082;37.928;2023-05-07T08:45:15;8.75;;;2.83;;
80159;SDS011;69486;59.082;37.928;2023-05-07T08:47:46;6.88;;;3.30;;
80159;SDS011;69486;59.082;37.928;2023-05-07T08:50:12;10.65;;;2.58;;
80159;SDS011;69486;59.082;37.928;2023-05-07T08:52:40;6.85;;;2.47;;
80159;SDS011;69486;59.082;37.928;2023-05-07T08:55:07;7.32;;;3.33;;
80159;SDS011;69486;59.082;37.928;2023-05-07T08:57:33;9.10;;;3.13;;
80159;SDS011;69486;59.082;37.928;2023-05-07T08:59:59;3.55;;;1.92;;
80159;SDS011;69486;59.082;37.928;2023-05-07T09:02:25;8.13;;;2.90;;
80159;SDS011;69486;59.082;37.928;2023-05-07T09:04:50;6.20;;;2.40;;
80159;SDS011;69486;59.082;37.928;2023-05-07T09:07:16;9.80;;;4.03;;
80159;SDS011;69486;59.082;37.928;2023-05-07T09:09:43;3.75;;;1.98;;
80159;SDS011;69486;59.082;37.928;2023-05-07T09:12:09;4.32;;;1.98;;
80159;SDS011;69486;59.082;37.928;2023-05-07T09:14:35;3.15;;;1.55;;
80159;SDS011;69486;59.082;37.928;2023-05-07T09:17:01;3.60;;;1.52;;
80159;SDS011;69486;59.082;37.928;2023-05-07T09:19:27;7.82;;;2.22;;
80159;SDS011;69486;59.082;37.928;2023-05-07T09:21:59;6.65;;;2.53;;
80159;SDS011;69486;59.082;37.928;2023-05-07T09:24:26;3.73;;;1.20;;
80159;SDS011;69486;59.082;37.928;2023-05-07T09:26:52;6.47;;;0.88;;
80159;SDS011;69486;59.082;37.928;2023-05-07T09:29:17;1.95;;;0.70;;
80159;SDS011;69486;59.082;37.928;2023-05-07T09:31:43;2.15;;;0.88;;
80159;SDS011;69486;59.082;37.928;2023-05-07T09:34:09;2.63;;;1.02;;
80159;SDS011;69486;59.082;37.928;2023-05-07T09:36:35;5.07;;;1.50;;
80159;SDS011;69486;59.082;37.928;2023-05-07T09:39:00;4.07;;;1.48;;
80159;SDS011;69486;59.082;37.928;2023-05-07T09:41:26;13.80;;;1.40;;
80159;SDS011;69486;59.082;37.928;2023-05-07T09:43:55;1.52;;;0.82;;
80159;SDS011;69486;59.082;37.928;2023-05-07T09:46:23;2.78;;;1.10;;
80159;SDS011;69486;59.082;37.928;2023-05-07T09:48:50;4.18;;;1.25;;
80159;SDS011;69486;59.082;37.928;2023-05-07T09:51:33;3.85;;;1.30;;
80159;SDS011;69486;59.082;37.928;2023-05-07T09:54:01;5.47;;;1.55;;
80159;SDS011;69486;59.082;37.928;2023-05-07T09:56:29;2.97;;;1.25;;
80159;SDS011;69486;59.082;37.928;2023-05-07T09:58:56;2.40;;;1.00;;
80159;SDS011;69486;59.082;37.928;2023-05-07T10:01:22;2.83;;;1.10;;
80159;SDS011;69486;59.082;37.928;2023-05-07T10:03:50;3.78;;;1.00;;
80159;SDS011;69486;59.082;37.928;2023-05-07T10:06:16;4.43;;;0.80;;
80159;SDS011;69486;59.082;37.928;2023-05-07T10:08:43;4.13;;;0.70;;
80159;SDS011;69486;59.082;37.928;2023-05-07T10:11:08;1.73;;;0.88;;
80159;SDS011;69486;59.082;37.928;2023-05-07T10:13:35;4.25;;;1.27;;
80159;SDS011;69486;59.082;37.928;2023-05-07T10:16:03;1.20;;;0.70;;
80159;SDS011;69486;59.082;37.928;2023-05-07T10:18:30;3.53;;;1.33;;
80159;SDS011;69486;59.082;37.928;2023-05-07T10:23:29;4.22;;;1.33;;
80159;SDS011;69486;59.082;37.928;2023-05-07T10:25:57;2.00;;;1.00;;
80159;SDS011;69486;59.082;37.928;2023-05-07T10:28:23;1.92;;;1.60;;
80159;SDS011;69486;59.082;37.928;2023-05-07T10:33:19;2.30;;;1.08;;
80159;SDS011;69486;59.082;37.928;2023-05-07T10:35:47;7.18;;;1.35;;
80159;SDS011;69486;59.082;37.928;2023-05-07T10:38:13;7.55;;;2.72;;
80159;SDS011;69486;59.082;37.928;2023-05-07T10:40:39;3.38;;;1.42;;
80159;SDS011;69486;59.082;37.928;2023-05-07T10:43:05;3.92;;;1.27;;
80159;SDS011;69486;59.082;37.928;2023-05-07T10:45:31;2.22;;;1.02;;
80159;SDS011;69486;59.082;37.928;2023-05-07T10:48:06;11.45;;;4.57;;
80159;SDS011;69486;59.082;37.928;2023-05-07T10:50:33;6.82;;;2.03;;
80159;SDS011;69486;59.082;37.928;2023-05-07T10:55:43;3.72;;;1.00;;
80159;SDS011;69486;59.082;37.928;2023-05-07T11:00:50;2.50;;;1.02;;
80159;SDS011;69486;59.082;37.928;2023-05-07T11:03:16;3.60;;;1.30;;
80159;SDS011;69486;59.082;37.928;2023-05-07T11:05:42;1.48;;;0.70;;
80159;SDS011;69486;59.082;37.928;2023-05-07T11:08:08;2.55;;;1.15;;
80159;SDS011;69486;59.082;37.928;2023-05-07T11:10:47;3.38;;;0.65;;
80159;SDS011;69486;59.082;37.928;2023-05-07T11:13:13;2.22;;;1.00;;
80159;SDS011;69486;59.082;37.928;2023-05-07T11:15:40;1.67;;;0.80;;
80159;SDS011;69486;59.082;37.928;2023-05-07T11:18:08;4.30;;;1.80;;
80159;SDS011;69486;59.082;37.928;2023-05-07T11:20:47;4.88;;;1.30;;
80159;SDS011;69486;59.082;37.928;2023-05-07T11:28:29;2.63;;;0.65;;
80159;SDS011;69486;59.082;37.928;2023-05-07T11:30:55;3.67;;;0.75;;
80159;SDS011;69486;59.082;37.928;2023-05-07T11:33:21;4.10;;;0.50;;
80159;SDS011;69486;59.082;37.928;2023-05-07T11:35:47;1.33;;;0.60;;
80159;SDS011;69486;59.082;37.928;2023-05-07T11:38:13;1.73;;;0.90;;
80159;SDS011;69486;59.082;37.928;2023-05-07T11:40:55;2.33;;;0.70;;
80159;SDS011;69486;59.082;37.928;2023-05-07T11:43:21;0.60;;;0.60;;
80159;SDS011;69486;59.082;37.928;2023-05-07T11:45:47;1.20;;;0.75;;
80159;SDS011;69486;59.082;37.928;2023-05-07T11:48:13;3.83;;;0.82;;
80159;SDS011;69486;59.082;37.928;2023-05-07T11:50:52;1.02;;;0.70;;
80159;SDS011;69486;59.082;37.928;2023-05-07T11:53:18;1.05;;;0.70;;
80159;SDS011;69486;59.082;37.928;2023-05-07T11:55:45;3.85;;;1.20;;
80159;SDS011;69486;59.082;37.928;2023-05-07T11:58:11;3.20;;;0.70;;
80159;SDS011;69486;59.082;37.928;2023-05-07T12:00:37;1.00;;;0.70;;
80159;SDS011;69486;59.082;37.928;2023-05-07T12:03:06;2.03;;;1.05;;
80159;SDS011;69486;59.082;37.928;2023-05-07T12:05:31;2.65;;;1.02;;
80159;SDS011;69486;59.082;37.928;2023-05-07T12:07:57;2.20;;;0.93;;
80159;SDS011;69486;59.082;37.928;2023-05-07T12:10:23;1.23;;;0.85;;
80159;SDS011;69486;59.082;37.928;2023-05-07T12:12:50;4.93;;;0.80;;
80159;SDS011;69486;59.082;37.928;2023-05-07T12:15:16;6.32;;;0.60;;
80159;SDS011;69486;59.082;37.928;2023-05-07T12:17:42;3.15;;;0.70;;
80159;SDS011;69486;59.082;37.928;2023-05-07T12:20:08;1.20;;;0.93;;
80159;SDS011;69486;59.082;37.928;2023-05-07T12:22:35;1.02;;;0.57;;
80159;SDS011;69486;59.082;37.928;2023-05-07T12:25:01;0.77;;;0.60;;
80159;SDS011;69486;59.082;37.928;2023-05-07T12:27:27;2.53;;;0.40;;
80159;SDS011;69486;59.082;37.928;2023-05-07T12:29:53;0.85;;;0.50;;
80159;SDS011;69486;59.082;37.928;2023-05-07T12:32:20;1.10;;;0.52;;
80159;SDS011;69486;59.082;37.928;2023-05-07T12:34:46;4.72;;;1.30;;
80159;SDS011;69486;59.082;37.928;2023-05-07T12:37:12;9.45;;;1.05;;
80159;SDS011;69486;59.082;37.928;2023-05-07T12:39:38;1.50;;;0.93;;
80159;SDS011;69486;59.082;37.928;2023-05-07T12:42:09;0.80;;;0.60;;
80159;SDS011;69486;59.082;37.928;2023-05-07T12:44:40;0.40;;;0.40;;
80159;SDS011;69486;59.082;37.928;2023-05-07T12:47:05;1.02;;;0.60;;
80159;SDS011;69486;59.082;37.928;2023-05-07T12:49:31;0.60;;;0.60;;
80159;SDS011;69486;59.082;37.928;2023-05-07T12:51:56;0.50;;;0.47;;
80159;SDS011;69486;59.082;37.928;2023-05-07T12:54:30;0.50;;;0.45;;
80159;SDS011;69486;59.082;37.928;2023-05-07T12:57:02;0.68;;;0.50;;
80159;SDS011;69486;59.082;37.928;2023-05-07T12:59:32;1.85;;;0.50;;
80159;SDS011;69486;59.082;37.928;2023-05-07T13:01:58;0.75;;;0.63;;
80159;SDS011;69486;59.082;37.928;2023-05-07T13:04:24;0.80;;;0.57;;
80159;SDS011;69486;59.082;37.928;2023-05-07T13:06:50;1.55;;;0.70;;
80159;SDS011;69486;59.082;37.928;2023-05-07T13:09:16;0.77;;;0.47;;
80159;SDS011;69486;59.082;37.928;2023-05-07T13:11:41;1.75;;;0.50;;
80159;SDS011;69486;59.082;37.928;2023-05-07T13:14:07;0.70;;;0.60;;
80159;SDS011;69486;59.082;37.928;2023-05-07T13:16:33;0.40;;;0.40;;
80159;SDS011;69486;59.082;37.928;2023-05-07T13:18:59;0.60;;;0.50;;
80159;SDS011;69486;59.082;37.928;2023-05-07T13:21:25;2.20;;;0.50;;
80159;SDS011;69486;59.082;37.928;2023-05-07T13:23:52;1.55;;;0.50;;
80159;SDS011;69486;59.082;37.928;2023-05-07T13:26:18;0.73;;;0.40;;
80159;SDS011;69486;59.082;37.928;2023-05-07T13:28:43;1.55;;;0.70;;
80159;SDS011;69486;59.082;37.928;2023-05-07T13:31:09;0.60;;;0.60;;
80159;SDS011;69486;59.082;37.928;2023-05-07T13:33:35;3.60;;;0.60;;
80159;SDS011;69486;59.082;37.928;2023-05-07T13:36:01;1.85;;;0.73;;
80159;SDS011;69486;59.082;37.928;2023-05-07T13:38:29;1.75;;;0.57;;
80159;SDS011;69486;59.082;37.928;2023-05-07T13:40:55;0.68;;;0.50;;
80159;SDS011;69486;59.082;37.928;2023-05-07T13:43:20;0.70;;;0.40;;
80159;SDS011;69486;59.082;37.928;2023-05-07T13:45:46;0.95;;;0.60;;
80159;SDS011;69486;59.082;37.928;2023-05-07T13:48:11;1.95;;;0.43;;
80159;SDS011;69486;59.082;37.928;2023-05-07T13:50:37;0.68;;;0.50;;
80159;SDS011;69486;59.082;37.928;2023-05-07T13:53:03;0.50;;;0.50;;
80159;SDS011;69486;59.082;37.928;2023-05-07T13:55:29;0.50;;;0.30;;
80159;SDS011;69486;59.082;37.928;2023-05-07T13:57:55;1.30;;;0.60;;
80159;SDS011;69486;59.082;37.928;2023-05-07T14:00:22;1.40;;;0.40;;
80159;SDS011;69486;59.082;37.928;2023-05-07T14:02:48;4.95;;;0.70;;
80159;SDS011;69486;59.082;37.928;2023-05-07T14:05:13;2.45;;;0.80;;
80159;SDS011;69486;59.082;37.928;2023-05-07T14:07:39;6.20;;;0.63;;
80159;SDS011;69486;59.082;37.928;2023-05-07T14:10:05;0.63;;;0.52;;
80159;SDS011;69486;59.082;37.928;2023-05-07T14:12:31;0.43;;;0.40;;
80159;SDS011;69486;59.082;37.928;2023-05-07T14:14:57;0.60;;;0.45;;
80159;SDS011;69486;59.082;37.928;2023-05-07T14:17:22;0.40;;;0.30;;
80159;SDS011;69486;59.082;37.928;2023-05-07T14:19:50;1.77;;;0.40;;
80159;SDS011;69486;59.082;37.928;2023-05-07T14:22:16;0.43;;;0.40;;
80159;SDS011;69486;59.082;37.928;2023-05-07T14:24:42;0.65;;;0.43;;
80159;SDS011;69486;59.082;37.928;2023-05-07T14:27:07;1.15;;;0.40;;
80159;SDS011;69486;59.082;37.928;2023-05-07T14:29:33;0.30;;;0.30;;
80159;SDS011;69486;59.082;37.928;2023-05-07T14:32:01;0.45;;;0.40;;
80159;SDS011;69486;59.082;37.928;2023-05-07T14:34:26;0.57;;;0.40;;
80159;SDS011;69486;59.082;37.928;2023-05-07T14:36:52;0.90;;;0.30;;
80159;SDS011;69486;59.082;37.928;2023-05-07T14:39:18;1.15;;;0.40;;
80159;SDS011;69486;59.082;37.928;2023-05-07T14:41:43;1.20;;;0.30;;